Time;durP1;ratioP1;P1;durP2;ratioP2;P2;SDS_P1;SDS_P2;PMS_P1;PMS_P2;Temp;Humidity;BMP_temperature;BMP_pressure;BME280_temperature;BME280_humidity;BME280_pressure;Samples;Min_cycle;Max_cycle;Signal;HPM_P1;HPM_P2
2022/04/16 00:00:06;;;;;;;1.50;1.40;;;9.90;67.10;;;;;;4998002;28;20372;-89
2022/04/16 00:02:32;;;;;;;1.52;1.42;;;9.90;67.20;;;;;;5010755;28;20029;-89
2022/04/16 00:04:58;;;;;;;1.25;1.15;;;9.80;67.30;;;;;;4995441;28;20473;-86
2022/04/16 00:07:24;;;;;;;1.70;1.60;;;9.80;67.40;;;;;;4991714;28;20030;-87
2022/04/16 00:09:49;;;;;;;1.90;1.75;;;9.70;67.50;;;;;;4995193;28;20038;-87
2022/04/16 00:12:15;;;;;;;2.10;1.90;;;9.70;67.60;;;;;;4977327;28;20026;-87
2022/04/16 00:14:40;;;;;;;1.60;1.50;;;9.60;67.80;;;;;;4981355;28;20093;-88
2022/04/16 00:17:07;;;;;;;1.80;1.70;;;9.50;67.80;;;;;;4995987;28;20146;-86
2022/04/16 00:19:33;;;;;;;2.25;1.50;;;9.50;68.00;;;;;;4978470;28;20400;-87
2022/04/16 00:22:00;;;;;;;1.95;1.60;;;9.40;68.10;;;;;;4987835;28;20123;-85
2022/04/16 00:24:27;;;;;;;1.60;1.50;;;9.40;68.30;;;;;;4996324;28;20026;-85
2022/04/16 00:26:53;;;;;;;1.70;1.60;;;9.40;68.40;;;;;;4972037;28;20122;-86
2022/04/16 00:29:19;;;;;;;1.70;1.60;;;9.40;68.50;;;;;;4973884;28;20065;-86
2022/04/16 00:31:47;;;;;;;1.65;1.55;;;9.40;68.70;;;;;;4978382;28;20034;-86
2022/04/16 00:34:14;;;;;;;1.65;1.55;;;9.30;68.80;;;;;;4978909;28;20077;-89
2022/04/16 00:36:44;;;;;;;2.58;2.00;;;9.30;68.90;;;;;;4992724;28;20026;-88
2022/04/16 00:39:10;;;;;;;2.00;1.80;;;9.30;69.10;;;;;;4992398;28;20053;-90
2022/04/16 00:41:36;;;;;;;1.85;1.75;;;9.30;69.00;;;;;;4989919;28;20046;-91
2022/04/16 00:44:01;;;;;;;2.33;1.55;;;9.30;69.20;;;;;;5012110;28;20018;-89
2022/04/16 00:46:27;;;;;;;1.65;1.55;;;9.30;69.30;;;;;;4981072;28;20044;-88
2022/04/16 00:48:53;;;;;;;1.75;1.65;;;9.30;69.40;;;;;;4973075;28;20415;-85
2022/04/16 00:51:20;;;;;;;1.75;1.65;;;9.30;69.30;;;;;;4995765;28;20023;-86
2022/04/16 00:53:46;;;;;;;1.92;1.70;;;9.30;69.20;;;;;;4988400;28;20041;-87
2022/04/16 00:56:13;;;;;;;1.73;1.50;;;9.30;69.20;;;;;;4978737;28;20022;-88
2022/04/16 00:58:42;;;;;;;2.38;1.60;;;9.20;69.30;;;;;;4977987;28;20027;-87
2022/04/16 01:01:08;;;;;;;2.75;1.60;;;9.20;69.50;;;;;;4977952;28;20054;-88
2022/04/16 01:03:34;;;;;;;1.70;1.60;;;9.10;69.50;;;;;;4980312;28;20805;-87
2022/04/16 01:06:00;;;;;;;1.70;1.60;;;9.10;69.70;;;;;;4982474;28;20034;-86
2022/04/16 01:08:27;;;;;;;1.73;1.63;;;9.10;69.80;;;;;;4981239;28;20030;-88
2022/04/16 01:10:52;;;;;;;1.75;1.65;;;9.10;70.00;;;;;;4978853;28;20101;-87
2022/04/16 01:13:18;;;;;;;1.80;1.70;;;9.10;70.50;;;;;;4972096;28;20030;-87
2022/04/16 01:15:44;;;;;;;2.15;1.95;;;9.10;70.10;;;;;;4977211;28;20374;-85
2022/04/16 01:18:12;;;;;;;4.05;1.83;;;9.00;70.10;;;;;;4981888;28;20053;-87
2022/04/16 01:20:38;;;;;;;2.03;1.83;;;9.00;70.30;;;;;;4976546;28;20100;-86
2022/04/16 01:23:04;;;;;;;1.83;1.55;;;9.00;70.40;;;;;;4978046;28;20683;-86
2022/04/16 01:25:32;;;;;;;2.67;2.10;;;9.00;70.40;;;;;;4975631;28;20035;-86
2022/04/16 01:27:58;;;;;;;1.80;1.70;;;9.00;70.50;;;;;;4975046;28;20040;-85
2022/04/16 01:30:24;;;;;;;2.03;1.83;;;9.00;70.50;;;;;;4978359;28;20030;-86
2022/04/16 01:32:50;;;;;;;1.92;1.63;;;9.00;70.60;;;;;;4983168;28;20102;-86
2022/04/16 01:35:17;;;;;;;1.73;1.60;;;9.00;70.60;;;;;;4977901;28;20030;-86
2022/04/16 01:37:42;;;;;;;1.95;1.85;;;8.90;70.70;;;;;;4979259;28;20356;-86
2022/04/16 01:40:11;;;;;;;1.95;1.83;;;8.90;70.80;;;;;;4979932;28;20109;-86
2022/04/16 01:42:37;;;;;;;2.08;1.88;;;8.80;70.90;;;;;;4998542;28;20034;-89
2022/04/16 01:45:05;;;;;;;1.75;1.65;;;8.80;71.00;;;;;;4981337;28;20169;-87
2022/04/16 01:47:33;;;;;;;3.20;1.70;;;8.80;71.30;;;;;;4976777;28;20054;-87
2022/04/16 01:49:59;;;;;;;1.70;1.60;;;8.70;71.40;;;;;;4976566;28;20924;-88
2022/04/16 01:52:25;;;;;;;1.90;1.70;;;8.70;71.60;;;;;;4978603;28;20026;-87
2022/04/16 01:54:51;;;;;;;1.83;1.73;;;8.70;71.80;;;;;;4978132;28;20528;-85
2022/04/16 01:57:18;;;;;;;1.90;1.80;;;8.70;72.00;;;;;;4979684;28;20022;-85
2022/04/16 01:59:48;;;;;;;2.00;1.85;;;8.70;72.30;;;;;;4974791;28;20398;-86
2022/04/16 02:02:14;;;;;;;2.90;1.77;;;8.70;72.50;;;;;;4994971;28;20018;-89
2022/04/16 02:04:40;;;;;;;3.35;1.70;;;8.80;72.70;;;;;;4978683;28;20053;-89
2022/04/16 02:07:06;;;;;;;3.60;1.77;;;8.80;72.80;;;;;;4989522;28;20480;-87
2022/04/16 02:09:32;;;;;;;2.10;1.92;;;8.80;72.90;;;;;;4996818;28;20030;-89
2022/04/16 02:11:57;;;;;;;2.08;1.85;;;8.90;72.90;;;;;;4980952;28;20098;-86
2022/04/16 02:14:23;;;;;;;2.20;2.00;;;8.90;72.80;;;;;;4995157;28;20137;-86
2022/04/16 02:16:49;;;;;;;1.83;1.73;;;8.90;72.80;;;;;;4991068;22;20074;-84
2022/04/16 02:19:17;;;;;;;2.20;2.00;;;8.90;72.90;;;;;;4998845;28;20478;-84
2022/04/16 02:21:43;;;;;;;3.63;1.83;;;8.90;73.10;;;;;;5002858;28;20018;-84
2022/04/16 02:24:10;;;;;;;3.15;1.67;;;8.90;73.30;;;;;;4998881;28;20037;-84
2022/04/16 02:26:36;;;;;;;2.03;1.83;;;8.90;73.60;;;;;;5003332;28;20032;-83
2022/04/16 02:29:02;;;;;;;2.17;1.83;;;8.90;73.80;;;;;;5005199;28;20057;-84
2022/04/16 02:31:27;;;;;;;1.92;1.77;;;9.00;74.00;;;;;;4994882;28;20117;-84
2022/04/16 02:33:55;;;;;;;1.75;1.65;;;9.00;74.00;;;;;;5005075;28;20028;-85
2022/04/16 02:36:22;;;;;;;3.15;1.88;;;9.10;74.10;;;;;;5002846;28;20065;-85
2022/04/16 02:38:48;;;;;;;2.10;1.83;;;9.10;74.20;;;;;;5001632;28;20033;-83
2022/04/16 02:41:13;;;;;;;3.25;1.90;;;9.10;74.30;;;;;;4998466;28;20026;-85
2022/04/16 02:43:39;;;;;;;2.25;1.77;;;9.10;74.30;;;;;;5002699;28;20033;-85
2022/04/16 02:48:49;;;;;;;3.45;2.40;;;9.10;74.60;;;;;;5017079;28;20591;-84
2022/04/16 02:51:14;;;;;;;1.77;1.67;;;9.20;74.70;;;;;;5016737;28;20291;-85
2022/04/16 02:53:40;;;;;;;3.83;2.15;;;9.20;74.80;;;;;;5001421;28;20030;-85
2022/04/16 02:56:06;;;;;;;3.00;2.25;;;9.20;74.80;;;;;;5001223;28;20053;-85
2022/04/16 02:58:31;;;;;;;2.67;2.17;;;9.20;74.80;;;;;;5003121;28;20090;-84
2022/04/16 03:00:57;;;;;;;2.05;1.95;;;9.20;74.80;;;;;;5000907;28;20143;-84
2022/04/16 03:03:23;;;;;;;1.98;1.77;;;9.20;75.10;;;;;;5020436;28;20034;-85
2022/04/16 03:05:48;;;;;;;2.90;2.20;;;9.20;75.40;;;;;;5003976;28;20045;-85
2022/04/16 03:08:15;;;;;;;2.47;2.28;;;9.20;75.40;;;;;;5002372;28;20053;-85
2022/04/16 03:10:41;;;;;;;2.63;2.35;;;9.20;75.40;;;;;;5002665;28;20110;-84
2022/04/16 03:13:07;;;;;;;2.53;2.08;;;9.30;75.50;;;;;;4997218;28;20070;-85
2022/04/16 03:18:17;;;;;;;2.47;2.28;;;9.30;75.80;;;;;;5015671;28;20109;-84
2022/04/16 03:20:42;;;;;;;4.30;2.25;;;9.30;75.90;;;;;;5002683;28;20441;-85
2022/04/16 03:23:09;;;;;;;2.67;2.40;;;9.30;76.00;;;;;;5016813;28;20465;-86
2022/04/16 03:25:40;;;;;;;2.42;2.22;;;9.30;76.10;;;;;;5018788;28;20053;-84
2022/04/16 03:28:05;;;;;;;2.83;2.60;;;9.40;76.30;;;;;;4993481;28;20155;-84
2022/04/16 03:30:31;;;;;;;3.05;2.63;;;9.40;76.40;;;;;;4999420;28;20341;-84
2022/04/16 03:32:57;;;;;;;2.50;2.30;;;9.40;76.50;;;;;;4999594;28;20056;-85
2022/04/16 03:35:23;;;;;;;2.40;2.20;;;9.40;76.60;;;;;;4997189;28;20029;-85
2022/04/16 03:37:49;;;;;;;2.85;2.63;;;9.40;76.60;;;;;;4990127;28;20030;-84
2022/04/16 03:40:15;;;;;;;2.85;2.38;;;9.40;76.70;;;;;;5010968;28;20022;-85
2022/04/16 03:43:01;;;;;;;2.90;2.60;;;9.50;77.00;;;;;;4994843;28;20018;-84
2022/04/16 03:45:27;;;;;;;2.70;2.50;;;9.50;77.30;;;;;;5012730;28;20030;-83
2022/04/16 03:47:54;;;;;;;2.53;2.33;;;9.50;77.20;;;;;;5017497;28;20052;-84
2022/04/16 03:50:21;;;;;;;3.05;2.65;;;9.50;77.30;;;;;;4997767;28;20105;-85
2022/04/16 03:52:48;;;;;;;2.47;2.25;;;9.60;77.60;;;;;;4997991;28;20507;-85
2022/04/16 04:00:45;;;;;;;3.17;2.50;;;9.60;77.50;;;;;;5018774;28;20041;-84
2022/04/16 04:03:11;;;;;;;3.20;2.90;;;9.60;77.80;;;;;;5017127;28;20030;-83
2022/04/16 04:05:38;;;;;;;2.55;2.35;;;9.60;78.00;;;;;;5019057;28;20034;-84
2022/04/16 04:08:08;;;;;;;2.85;2.65;;;9.60;78.10;;;;;;5002599;28;20084;-84
2022/04/16 04:10:34;;;;;;;2.47;2.28;;;9.60;78.40;;;;;;5022834;28;20041;-85
2022/04/16 04:13:00;;;;;;;3.42;2.83;;;9.60;78.60;;;;;;5004825;28;20077;-85
2022/04/16 04:15:29;;;;;;;3.00;2.70;;;9.60;78.80;;;;;;5002528;28;20022;-84
2022/04/16 04:17:56;;;;;;;2.92;2.63;;;9.70;79.00;;;;;;5005089;28;20514;-85
2022/04/16 04:20:22;;;;;;;4.57;2.88;;;9.70;79.20;;;;;;5020969;28;20026;-84
2022/04/16 04:22:47;;;;;;;3.22;2.92;;;9.70;79.40;;;;;;5003600;28;20439;-84
2022/04/16 04:25:13;;;;;;;3.17;2.88;;;9.70;79.50;;;;;;5004508;28;20056;-84
2022/04/16 04:27:38;;;;;;;2.92;2.72;;;9.70;79.60;;;;;;5004458;28;20057;-85
2022/04/16 04:30:05;;;;;;;3.42;2.60;;;9.70;79.80;;;;;;5019401;28;20022;-85
2022/04/16 04:32:31;;;;;;;4.35;2.88;;;9.80;80.20;;;;;;5001206;28;20049;-85
2022/04/16 04:34:57;;;;;;;4.07;2.70;;;9.80;80.70;;;;;;5004074;28;20025;-84
2022/04/16 04:37:23;;;;;;;6.13;3.70;;;9.80;80.90;;;;;;5001826;28;20343;-84
2022/04/16 04:39:49;;;;;;;3.50;3.20;;;9.80;81.10;;;;;;5002903;28;20018;-84
2022/04/16 04:42:32;;;;;;;3.47;3.17;;;9.80;81.20;;;;;;5019738;28;20030;-83
2022/04/16 04:44:58;;;;;;;4.25;3.25;;;9.80;81.60;;;;;;5000727;28;20068;-84
2022/04/16 04:47:24;;;;;;;3.67;3.03;;;9.80;81.70;;;;;;5006446;28;20056;-85
2022/04/16 04:49:50;;;;;;;4.15;3.20;;;9.80;82.10;;;;;;5005700;28;20102;-85
2022/04/16 04:52:26;;;;;;;3.70;3.25;;;9.80;82.60;;;;;;5005500;28;20034;-85
2022/04/16 04:54:55;;;;;;;4.32;3.35;;;9.80;83.30;;;;;;5005475;28;20030;-86
2022/04/16 04:57:21;;;;;;;3.92;3.20;;;9.80;83.30;;;;;;5005539;28;20084;-86
2022/04/16 04:59:46;;;;;;;4.78;3.42;;;9.80;83.50;;;;;;5002316;28;20030;-85
2022/04/16 05:02:12;;;;;;;4.43;3.40;;;9.90;83.70;;;;;;4999126;28;20036;-85
2022/04/16 05:04:38;;;;;;;10.38;3.70;;;9.90;83.90;;;;;;5004831;28;20215;-85
2022/04/16 05:07:05;;;;;;;3.78;3.05;;;9.90;84.10;;;;;;5006795;28;20108;-85
2022/04/16 05:09:31;;;;;;;3.95;3.53;;;9.90;84.30;;;;;;5018872;28;20087;-85
2022/04/16 05:11:57;;;;;;;3.75;3.25;;;9.90;84.40;;;;;;5022327;28;20039;-83
2022/04/16 05:14:22;;;;;;;4.30;3.70;;;9.90;84.60;;;;;;5028040;28;20093;-83
2022/04/16 05:16:49;;;;;;;4.50;3.60;;;9.90;84.80;;;;;;5034611;28;20018;-83
2022/04/16 05:19:15;;;;;;;4.53;3.53;;;9.90;85.00;;;;;;5034596;28;20049;-84
2022/04/16 05:21:41;;;;;;;5.28;3.75;;;9.90;85.00;;;;;;5020447;28;20094;-85
2022/04/16 05:24:07;;;;;;;6.20;4.40;;;9.90;85.30;;;;;;4993973;28;20038;-83
2022/04/16 05:26:33;;;;;;;5.97;3.90;;;9.90;85.50;;;;;;5001627;28;20040;-84
2022/04/16 05:28:59;;;;;;;7.60;3.95;;;9.90;86.00;;;;;;5010911;28;20394;-83
2022/04/16 05:31:27;;;;;;;7.30;4.43;;;10.00;86.40;;;;;;5029796;28;20084;-84
2022/04/16 05:36:38;;;;;;;5.18;3.88;;;10.00;86.40;;;;;;5017412;28;20056;-85
2022/04/16 05:39:04;;;;;;;5.15;4.10;;;10.00;86.40;;;;;;5019089;28;20027;-84
2022/04/16 05:41:33;;;;;;;5.72;4.40;;;9.90;86.40;;;;;;5001437;28;20033;-84
2022/04/16 05:43:59;;;;;;;5.57;4.50;;;9.90;86.80;;;;;;5020304;28;20021;-82
2022/04/16 05:46:24;;;;;;;6.55;4.32;;;10.00;87.10;;;;;;5017534;28;20065;-86
2022/04/16 05:48:50;;;;;;;5.88;4.10;;;9.90;87.30;;;;;;5005142;28;20080;-84
2022/04/16 05:51:16;;;;;;;4.97;4.03;;;10.00;87.70;;;;;;5003800;28;20065;-84
2022/04/16 05:53:42;;;;;;;5.50;4.40;;;10.00;88.00;;;;;;5017070;28;20054;-84
2022/04/16 05:56:09;;;;;;;5.28;3.85;;;10.10;88.20;;;;;;4999168;28;20045;-84
2022/04/16 05:58:36;;;;;;;5.93;4.15;;;10.10;88.60;;;;;;5004523;28;20017;-85
2022/04/16 06:01:03;;;;;;;6.30;3.95;;;10.10;88.60;;;;;;5004030;28;20029;-84
2022/04/16 06:03:29;;;;;;;4.38;3.70;;;10.20;88.70;;;;;;5027905;28;20030;-85
2022/04/16 06:05:55;;;;;;;5.22;4.03;;;10.20;88.70;;;;;;5004396;28;20036;-85
2022/04/16 06:08:21;;;;;;;5.20;3.80;;;10.20;89.00;;;;;;5004415;28;20516;-85
2022/04/16 06:10:46;;;;;;;5.68;4.15;;;10.20;89.20;;;;;;5005437;28;20486;-85
2022/04/16 06:13:12;;;;;;;5.68;3.95;;;10.20;89.40;;;;;;4999381;28;20041;-85
2022/04/16 06:15:42;;;;;;;6.50;4.15;;;10.20;89.60;;;;;;5019858;28;20079;-84
2022/04/16 06:18:11;;;;;;;6.22;4.32;;;10.20;90.00;;;;;;5002984;28;20065;-85
2022/04/16 06:20:37;;;;;;;6.00;4.43;;;10.20;89.80;;;;;;5003914;28;20081;-85
2022/04/16 06:23:04;;;;;;;8.07;4.78;;;10.20;89.80;;;;;;4999158;28;20486;-84
2022/04/16 06:25:29;;;;;;;7.45;4.95;;;10.20;90.00;;;;;;4996462;28;20386;-84
2022/04/16 06:27:55;;;;;;;6.53;4.68;;;10.10;90.10;;;;;;5000557;28;20033;-84
2022/04/16 06:30:21;;;;;;;6.85;5.05;;;10.10;90.20;;;;;;5006547;28;20030;-85
2022/04/16 06:32:47;;;;;;;7.15;4.93;;;10.10;90.30;;;;;;5015256;28;20083;-81
2022/04/16 06:35:12;;;;;;;6.75;4.95;;;10.10;90.50;;;;;;4998202;28;20502;-85
2022/04/16 06:37:43;;;;;;;7.90;5.97;;;10.10;90.60;;;;;;5001934;28;20026;-83
2022/04/16 06:40:10;;;;;;;8.57;5.95;;;10.10;90.60;;;;;;5018127;28;20163;-82
2022/04/16 06:42:37;;;;;;;8.43;6.18;;;10.10;90.50;;;;;;5002624;28;20033;-84
2022/04/16 06:45:08;;;;;;;9.10;6.00;;;10.10;90.50;;;;;;5021890;28;20073;-84
2022/04/16 06:47:33;;;;;;;7.97;6.05;;;10.10;90.70;;;;;;5021522;28;20018;-83
2022/04/16 06:49:59;;;;;;;9.52;6.85;;;10.10;90.60;;;;;;5002087;28;20490;-81
2022/04/16 06:52:25;;;;;;;10.48;7.03;;;10.00;90.50;;;;;;5015298;28;20034;-81
2022/04/16 06:54:50;;;;;;;11.27;7.43;;;10.00;90.60;;;;;;5001995;28;20065;-84
2022/04/16 06:57:16;;;;;;;11.10;7.60;;;10.00;90.70;;;;;;5021796;28;20018;-84
2022/04/16 06:59:42;;;;;;;12.20;7.70;;;10.00;90.80;;;;;;5003324;28;20029;-82
2022/04/16 07:02:09;;;;;;;10.57;7.55;;;10.00;90.90;;;;;;5021421;28;20033;-82
2022/04/16 07:04:35;;;;;;;12.95;8.35;;;10.00;90.90;;;;;;5021166;28;20029;-84
2022/04/16 07:07:01;;;;;;;12.32;8.38;;;9.90;90.90;;;;;;5002562;28;20513;-84
2022/04/16 07:09:26;;;;;;;11.98;8.75;;;9.90;91.10;;;;;;5021730;28;20086;-84
2022/04/16 07:11:52;;;;;;;11.63;8.52;;;9.90;91.30;;;;;;5003460;28;20029;-82
2022/04/16 07:14:18;;;;;;;14.23;9.40;;;9.90;91.40;;;;;;5019674;28;20057;-82
2022/04/16 07:16:44;;;;;;;13.27;8.98;;;9.90;91.40;;;;;;5004029;28;20022;-82
2022/04/16 07:19:09;;;;;;;12.63;8.93;;;9.80;91.40;;;;;;5022340;28;20030;-83
2022/04/16 07:21:35;;;;;;;15.38;9.80;;;9.80;91.50;;;;;;5022244;28;20119;-84
2022/04/16 07:24:01;;;;;;;16.48;9.05;;;9.70;91.70;;;;;;5002075;28;20102;-83
2022/04/16 07:26:27;;;;;;;12.05;8.57;;;9.60;91.70;;;;;;5003978;28;20128;-82
2022/04/16 07:28:53;;;;;;;13.38;8.55;;;9.60;91.90;;;;;;5020497;28;20033;-81
2022/04/16 07:31:18;;;;;;;13.80;9.38;;;9.50;92.40;;;;;;5000484;28;20034;-83
2022/04/16 07:33:44;;;;;;;14.05;9.55;;;9.50;92.40;;;;;;5000462;28;20037;-82
2022/04/16 07:36:09;;;;;;;14.65;9.00;;;9.50;92.50;;;;;;5001803;28;20613;-84
2022/04/16 07:38:35;;;;;;;15.23;8.75;;;9.50;92.70;;;;;;5028221;28;20108;-84
2022/04/16 07:41:02;;;;;;;14.98;9.32;;;9.50;92.70;;;;;;5026724;28;20053;-82
2022/04/16 07:43:32;;;;;;;13.40;9.32;;;9.50;92.80;;;;;;5020993;28;20109;-84
2022/04/16 07:45:58;;;;;;;13.98;9.10;;;9.50;92.90;;;;;;5001348;28;20258;-84
2022/04/16 07:48:24;;;;;;;16.25;9.13;;;9.50;92.90;;;;;;5013240;28;20034;-81
2022/04/16 07:50:49;;;;;;;14.48;9.13;;;9.50;92.90;;;;;;5011330;28;20057;-83
2022/04/16 07:53:15;;;;;;;14.27;9.00;;;9.60;93.10;;;;;;5016664;28;20069;-82
2022/04/16 07:55:41;;;;;;;14.23;9.00;;;9.60;93.20;;;;;;5001625;28;20030;-83
2022/04/16 07:58:06;;;;;;;15.10;9.65;;;9.70;93.30;;;;;;5015971;28;20026;-84
2022/04/16 08:00:32;;;;;;;14.77;8.77;;;9.80;93.20;;;;;;4995604;28;20543;-83
2022/04/16 08:02:57;;;;;;;13.55;8.80;;;9.80;92.80;;;;;;4996561;28;20033;-83
2022/04/16 08:05:23;;;;;;;14.95;8.90;;;9.90;92.70;;;;;;4977586;28;20029;-82
2022/04/16 08:07:49;;;;;;;12.30;8.10;;;9.90;92.60;;;;;;5000883;28;20546;-83
2022/04/16 08:10:15;;;;;;;14.95;8.95;;;9.90;92.50;;;;;;4991232;28;20111;-84
2022/04/16 08:12:40;;;;;;;13.50;9.02;;;9.90;92.60;;;;;;4998088;28;20037;-84
2022/04/16 08:15:06;;;;;;;14.07;9.50;;;10.00;92.80;;;;;;5010485;28;20034;-84
2022/04/16 08:17:33;;;;;;;15.02;10.13;;;10.10;93.20;;;;;;4993910;28;20050;-84
2022/04/16 08:19:59;;;;;;;13.55;9.35;;;10.20;93.00;;;;;;5012884;28;20080;-83
2022/04/16 08:22:28;;;;;;;14.18;8.77;;;10.20;92.90;;;;;;5015683;28;20022;-83
2022/04/16 08:27:38;;;;;;;10.35;7.40;;;10.30;92.60;;;;;;5015937;28;20461;-84
2022/04/16 08:30:04;;;;;;;12.88;8.32;;;10.40;92.30;;;;;;4998211;28;20026;-83
2022/04/16 08:32:35;;;;;;;13.60;7.90;;;10.50;92.20;;;;;;5017421;28;20022;-84
2022/04/16 08:35:00;;;;;;;13.25;7.68;;;10.50;92.00;;;;;;4996767;28;20117;-83
2022/04/16 08:37:26;;;;;;;12.50;7.90;;;10.50;91.80;;;;;;5008224;28;20066;-83
2022/04/16 08:39:51;;;;;;;11.02;7.13;;;10.70;91.70;;;;;;4998866;28;20030;-84
2022/04/16 08:42:18;;;;;;;10.10;6.70;;;10.80;91.50;;;;;;5000819;28;20485;-83
2022/04/16 08:44:44;;;;;;;10.20;6.75;;;11.00;91.20;;;;;;5014324;28;20045;-82
2022/04/16 08:47:10;;;;;;;8.35;6.13;;;11.20;91.00;;;;;;5013995;28;20102;-82
2022/04/16 08:49:35;;;;;;;9.88;6.63;;;11.30;90.70;;;;;;5012529;28;20075;-83
2022/04/16 08:52:06;;;;;;;10.02;6.60;;;11.40;90.40;;;;;;4997102;28;20120;-83
2022/04/16 08:54:34;;;;;;;10.63;6.38;;;11.50;90.30;;;;;;5012836;28;20026;-80
2022/04/16 08:56:59;;;;;;;8.45;6.30;;;11.60;90.20;;;;;;5008346;28;20033;-82
2022/04/16 08:59:25;;;;;;;8.13;5.95;;;11.60;89.90;;;;;;5014920;28;20033;-84
2022/04/16 09:01:51;;;;;;;9.18;6.45;;;11.60;89.20;;;;;;4997912;28;20014;-82
2022/04/16 09:04:21;;;;;;;8.55;6.03;;;11.70;89.00;;;;;;4997359;28;20022;-83
2022/04/16 09:07:03;;;;;;;8.25;5.72;;;11.80;88.40;;;;;;5018346;28;20026;-85
2022/04/16 09:09:29;;;;;;;8.80;5.47;;;11.90;87.80;;;;;;5014845;28;20088;-84
2022/04/16 09:11:54;;;;;;;8.93;6.03;;;12.00;87.50;;;;;;4997363;28;20034;-85
2022/04/16 09:14:35;;;;;;;8.00;5.70;;;12.00;87.80;;;;;;5004862;28;20061;-82
2022/04/16 09:17:00;;;;;;;7.15;5.38;;;12.00;87.80;;;;;;4990762;28;20052;-86
2022/04/16 09:19:29;;;;;;;10.77;5.93;;;12.00;87.30;;;;;;5014193;28;20030;-84
2022/04/16 09:21:55;;;;;;;9.52;5.65;;;12.00;87.60;;;;;;5007420;28;20030;-85
2022/04/16 09:24:20;;;;;;;7.93;5.15;;;12.10;86.90;;;;;;4993821;28;20044;-82
2022/04/16 09:26:49;;;;;;;6.40;5.00;;;12.10;86.60;;;;;;4997810;28;20038;-84
2022/04/16 09:29:16;;;;;;;8.82;5.22;;;12.10;86.30;;;;;;4990555;28;20057;-81
2022/04/16 09:31:46;;;;;;;8.07;5.15;;;12.00;85.90;;;;;;5012198;28;20022;-84
2022/04/16 09:34:19;;;;;;;5.97;4.68;;;11.90;85.90;;;;;;5007162;28;20033;-84
2022/04/16 09:36:44;;;;;;;7.32;4.85;;;11.90;85.70;;;;;;4990579;28;20508;-86
2022/04/16 09:39:11;;;;;;;5.90;4.38;;;11.90;85.40;;;;;;5009276;28;20119;-86
2022/04/16 09:41:41;;;;;;;6.78;4.18;;;11.80;85.40;;;;;;4997188;28;20018;-83
2022/04/16 09:44:21;;;;;;;5.90;4.10;;;11.80;85.00;;;;;;5016048;28;21545;-82
2022/04/16 09:46:48;;;;;;;6.10;4.10;;;11.60;84.70;;;;;;4999093;28;20042;-84
2022/04/16 09:49:15;;;;;;;5.28;4.18;;;11.60;84.60;;;;;;5018670;28;20568;-83
2022/04/16 09:51:43;;;;;;;6.32;4.05;;;11.50;84.60;;;;;;5001205;28;20029;-84
2022/04/16 09:54:09;;;;;;;6.93;4.00;;;11.40;84.60;;;;;;5017641;28;20568;-83
2022/04/16 09:56:37;;;;;;;6.18;3.70;;;11.40;84.40;;;;;;5016324;28;20033;-83
2022/04/16 09:59:08;;;;;;;5.35;3.85;;;11.40;84.60;;;;;;5019761;28;20113;-84
2022/04/16 10:01:38;;;;;;;8.73;4.07;;;11.50;84.60;;;;;;5014459;28;20025;-83
2022/04/16 10:04:03;;;;;;;5.40;3.72;;;11.60;84.50;;;;;;5014100;28;20030;-85
2022/04/16 10:06:30;;;;;;;4.20;3.50;;;11.70;84.20;;;;;;4998331;28;20445;-85
2022/04/16 10:08:57;;;;;;;7.35;3.63;;;11.90;83.50;;;;;;5011802;28;20081;-88
2022/04/16 10:11:42;;;;;;;5.30;3.90;;;12.10;83.00;;;;;;5014001;28;20085;-85
2022/04/16 10:14:43;;;;;;;6.05;4.18;;;12.40;82.10;;;;;;4989802;28;20025;-87
2022/04/16 10:17:14;;;;;;;5.75;4.10;;;13.30;79.20;;;;;;4983534;28;20034;-84
2022/04/16 10:19:44;;;;;;;9.82;5.15;;;13.80;76.70;;;;;;4998645;28;20164;-83
2022/04/16 10:22:20;;;;;;;7.55;4.78;;;13.80;76.50;;;;;;4998154;28;20343;-85
2022/04/16 10:24:49;;;;;;;7.45;4.72;;;15.90;72.40;;;;;;5017204;28;20025;-85
2022/04/16 10:27:39;;;;;;;6.30;4.47;;;17.70;66.40;;;;;;4989922;28;20650;-85
2022/04/16 10:30:12;;;;;;;5.97;4.18;;;19.10;62.50;;;;;;4998416;28;20617;-84
2022/04/16 10:32:40;;;;;;;4.43;3.60;;;19.90;59.50;;;;;;4991318;28;20049;-82
2022/04/16 10:35:12;;;;;;;5.38;3.78;;;20.20;58.20;;;;;;4998170;28;20558;-85
2022/04/16 10:37:39;;;;;;;6.47;4.80;;;20.50;57.20;;;;;;5008484;28;20053;-88
2022/04/16 10:40:18;;;;;;;7.55;4.40;;;20.70;56.60;;;;;;4992912;28;20030;-86
2022/04/16 10:42:49;;;;;;;5.68;4.68;;;20.90;56.10;;;;;;5009716;28;20841;-85
2022/04/16 10:45:14;;;;;;;6.13;3.67;;;21.00;55.80;;;;;;4995329;28;20025;-86
2022/04/16 10:47:41;;;;;;;5.53;3.97;;;21.10;55.80;;;;;;4995245;28;20056;-84
2022/04/16 10:50:15;;;;;;;5.43;3.53;;;20.70;55.70;;;;;;5004370;28;20037;-81
2022/04/16 10:52:52;;;;;;;5.68;3.75;;;20.30;56.20;;;;;;5001830;28;20072;-83
2022/04/16 10:55:20;;;;;;;5.55;4.07;;;20.00;56.70;;;;;;5015886;28;20022;-83
2022/04/16 10:57:56;;;;;;;6.30;4.50;;;18.80;58.30;;;;;;4999347;28;20069;-86
2022/04/16 11:00:23;;;;;;;4.82;3.63;;;18.90;58.00;;;;;;5016179;28;20019;-85
2022/04/16 11:02:51;;;;;;;7.13;3.40;;;19.10;58.40;;;;;;5016313;28;20026;-88
2022/04/16 11:05:17;;;;;;;5.97;3.70;;;18.60;58.80;;;;;;4989897;28;20029;-88
2022/04/16 11:07:42;;;;;;;5.63;3.72;;;18.00;59.30;;;;;;4992169;28;20048;-81
2022/04/16 11:10:10;;;;;;;6.40;3.88;;;17.40;59.90;;;;;;5013612;28;20036;-83
2022/04/16 11:12:40;;;;;;;4.32;3.58;;;17.40;60.30;;;;;;4998250;28;20031;-85
2022/04/16 11:15:19;;;;;;;5.15;3.60;;;17.50;59.90;;;;;;5002211;28;20374;-85
2022/04/16 11:17:45;;;;;;;4.82;3.75;;;17.60;59.60;;;;;;5018360;28;20030;-85
2022/04/16 11:20:10;;;;;;;5.45;3.88;;;17.50;60.00;;;;;;5003560;28;20024;-83
2022/04/16 11:22:38;;;;;;;4.38;3.30;;;17.60;59.80;;;;;;5003289;28;20033;-84
2022/04/16 11:25:07;;;;;;;3.88;3.22;;;17.70;59.30;;;;;;5002606;28;20033;-85
2022/04/16 11:36:05;;;;;;;4.68;3.38;;;17.40;58.70;;;;;;5022246;28;20093;-84
2022/04/16 11:38:33;;;;;;;3.10;2.65;;;17.50;59.00;;;;;;5015862;28;20081;-83
2022/04/16 11:41:04;;;;;;;3.58;2.92;;;17.50;58.80;;;;;;5002512;28;20030;-84
2022/04/16 11:43:30;;;;;;;2.90;2.60;;;17.40;58.60;;;;;;5014445;28;20544;-83
2022/04/16 11:45:57;;;;;;;4.65;2.90;;;17.40;58.90;;;;;;5000042;28;20026;-83
2022/04/16 11:48:23;;;;;;;3.88;2.80;;;17.40;58.80;;;;;;4998845;28;20038;-83
2022/04/16 11:50:50;;;;;;;3.65;2.95;;;17.40;58.40;;;;;;5003687;28;20026;-84
2022/04/16 11:53:15;;;;;;;2.97;2.67;;;17.30;58.30;;;;;;5016551;28;20033;-83
2022/04/16 11:55:48;;;;;;;2.90;2.60;;;17.30;59.00;;;;;;5018905;28;20026;-83
2022/04/16 11:58:14;;;;;;;3.63;3.33;;;17.30;58.10;;;;;;5002354;28;20097;-85
2022/04/16 12:00:57;;;;;;;3.60;3.30;;;17.30;58.30;;;;;;4996934;28;20451;-83
2022/04/16 12:03:34;;;;;;;3.88;3.40;;;17.30;58.00;;;;;;5012517;28;20026;-84
2022/04/16 12:05:59;;;;;;;4.10;3.22;;;17.30;58.00;;;;;;5014636;28;20033;-84
2022/04/16 12:08:25;;;;;;;4.03;3.33;;;17.00;58.10;;;;;;5000233;28;20041;-84
2022/04/16 12:10:50;;;;;;;4.40;3.25;;;16.90;58.00;;;;;;5011470;28;20030;-84
2022/04/16 12:13:16;;;;;;;5.60;3.47;;;16.90;58.00;;;;;;5020582;28;20048;-84
2022/04/16 12:15:46;;;;;;;5.40;2.75;;;17.00;58.10;;;;;;5017725;28;20414;-84
2022/04/16 12:18:12;;;;;;;4.03;3.35;;;16.80;58.20;;;;;;5018527;28;20018;-83
2022/04/16 12:20:42;;;;;;;2.95;2.58;;;16.90;58.50;;;;;;5019346;28;20568;-85
2022/04/16 12:23:13;;;;;;;3.35;2.33;;;17.00;58.00;;;;;;5019614;28;20018;-83
2022/04/16 12:25:40;;;;;;;2.65;2.33;;;16.90;58.00;;;;;;5014600;28;20503;-83
2022/04/16 12:28:11;;;;;;;3.10;2.80;;;16.80;57.60;;;;;;4998748;28;20560;-83
2022/04/16 12:30:37;;;;;;;3.20;2.70;;;16.90;57.20;;;;;;5019289;28;20080;-82
2022/04/16 12:33:07;;;;;;;3.50;2.60;;;16.90;57.30;;;;;;5002705;28;20529;-83
2022/04/16 12:35:37;;;;;;;2.65;1.63;;;17.10;57.20;;;;;;5004097;28;20483;-84
2022/04/16 12:38:03;;;;;;;2.13;1.70;;;17.10;56.40;;;;;;5020324;28;20030;-83
2022/04/16 12:40:31;;;;;;;3.15;2.55;;;17.20;56.30;;;;;;5002953;28;20478;-83
2022/04/16 12:42:58;;;;;;;3.28;2.88;;;17.20;55.80;;;;;;5019893;28;20018;-83
2022/04/16 12:45:24;;;;;;;4.15;2.80;;;17.10;55.70;;;;;;5002913;28;20022;-83
2022/04/16 12:47:51;;;;;;;6.07;3.40;;;17.20;55.90;;;;;;5012403;28;20670;-83
2022/04/16 12:50:17;;;;;;;4.97;3.60;;;17.30;55.70;;;;;;5007918;28;20028;-82
2022/04/16 12:52:44;;;;;;;4.72;3.47;;;17.40;55.80;;;;;;5006413;28;20470;-80
2022/04/16 12:55:10;;;;;;;5.47;3.35;;;17.40;55.70;;;;;;5002594;28;20041;-84
2022/04/16 12:57:36;;;;;;;3.08;2.78;;;17.60;55.50;;;;;;5021932;28;20033;-83
2022/04/16 13:00:07;;;;;;;4.10;2.90;;;17.70;54.60;;;;;;5022926;28;20026;-84
2022/04/16 13:02:33;;;;;;;3.90;2.45;;;17.70;53.70;;;;;;5004130;28;20250;-83
2022/04/16 13:04:59;;;;;;;3.33;2.95;;;17.70;54.00;;;;;;5022769;28;20053;-82
2022/04/16 13:07:24;;;;;;;3.35;2.50;;;17.70;53.50;;;;;;5001105;28;20045;-84
2022/04/16 13:09:50;;;;;;;4.78;3.30;;;17.80;53.30;;;;;;5006030;28;20263;-84
2022/04/16 13:12:18;;;;;;;9.07;6.40;;;17.70;52.50;;;;;;5023764;28;20113;-83
2022/04/16 13:14:46;;;;;;;4.13;2.45;;;17.60;52.70;;;;;;5005178;28;20089;-83